createdAt,value
2018-03-26T00:00:21.550Z,161.03
2018-03-26T00:02:49.880Z,164.97
2018-03-26T00:05:17.466Z,154.63
2018-03-26T00:07:45.804Z,160.57
2018-03-26T00:10:13.386Z,162.10
2018-03-26T00:12:40.990Z,179.20
2018-03-26T00:15:08.569Z,176.07
2018-03-26T00:17:36.127Z,174.63
2018-03-26T00:20:03.755Z,195.33
2018-03-26T00:22:32.111Z,196.37
2018-03-26T00:24:59.716Z,200.97
2018-03-26T00:27:27.311Z,227.13
2018-03-26T00:29:54.872Z,223.37
2018-03-26T00:32:22.443Z,214.50
2018-03-26T00:34:51.701Z,224.27
2018-03-26T00:37:20.071Z,230.67
2018-03-26T00:39:47.649Z,216.83
2018-03-26T00:42:15.263Z,197.67
2018-03-26T00:44:43.604Z,199.87
2018-03-26T00:47:11.166Z,193.63
2018-03-26T00:49:38.766Z,212.73
2018-03-26T00:52:06.326Z,198.43
2018-03-26T00:54:34.346Z,186.37
2018-03-26T00:57:01.938Z,206.90
2018-03-26T00:59:30.274Z,211.17
2018-03-26T01:01:58.666Z,260.77
2018-03-26T01:04:26.272Z,226.57
2018-03-26T01:06:53.881Z,245.27
2018-03-26T01:09:21.568Z,280.27
2018-03-26T01:11:49.182Z,254.40
2018-03-26T01:14:17.066Z,237.30
2018-03-26T01:16:44.638Z,239.87
2018-03-26T01:19:12.280Z,254.90
2018-03-26T01:21:39.874Z,260.17
2018-03-26T01:24:08.199Z,258.00
2018-03-26T01:26:35.788Z,299.23
2018-03-26T01:29:03.519Z,313.90
2018-03-26T01:31:31.131Z,283.03
2018-03-26T01:33:59.562Z,317.00
2018-03-26T01:36:27.145Z,334.63
2018-03-26T01:38:54.720Z,314.80
2018-03-26T01:41:22.344Z,319.50
2018-03-26T01:43:49.916Z,325.50
2018-03-26T01:46:18.032Z,367.40
2018-03-26T01:48:46.424Z,359.37
2018-03-26T01:51:14.024Z,413.63
2018-03-26T01:53:41.627Z,385.70
2018-03-26T01:56:09.997Z,355.93
2018-03-26T01:58:38.340Z,401.73
2018-03-26T02:01:05.991Z,404.93
2018-03-26T02:03:33.566Z,413.90
2018-03-26T02:06:01.159Z,402.80
2018-03-26T02:08:29.510Z,366.03
2018-03-26T02:10:57.113Z,354.10
2018-03-26T02:13:24.698Z,390.17
2018-03-26T02:15:52.287Z,414.13
2018-03-26T02:18:19.896Z,410.20
2018-03-26T02:20:47.494Z,439.53
2018-03-26T02:23:15.066Z,399.47
2018-03-26T02:25:42.657Z,449.50
2018-03-26T02:28:11.044Z,452.97
2018-03-26T02:30:38.955Z,462.07
2018-03-26T02:33:06.595Z,495.10
2018-03-26T02:35:34.406Z,503.60
2018-03-26T02:38:02.823Z,480.07
2018-03-26T02:40:30.382Z,492.27
2018-03-26T02:42:57.975Z,494.70
2018-03-26T02:45:25.560Z,505.83
2018-03-26T02:47:53.158Z,507.83
2018-03-26T02:50:20.743Z,439.50
2018-03-26T02:52:48.342Z,385.87
2018-03-26T02:55:16.668Z,386.63
2018-03-26T02:57:44.265Z,365.33
2018-03-26T03:00:11.866Z,354.37
2018-03-26T03:02:39.430Z,321.33
2018-03-26T03:05:07.034Z,333.93
2018-03-26T03:07:34.611Z,338.07
2018-03-26T03:10:02.190Z,353.70
2018-03-26T03:12:30.571Z,392.90
2018-03-26T03:14:59.097Z,352.77
2018-03-26T03:17:26.662Z,406.23
2018-03-26T03:19:54.630Z,330.80
2018-03-26T03:22:22.193Z,346.00
2018-03-26T03:24:49.796Z,270.87
2018-03-26T03:27:18.448Z,252.20
2018-03-26T03:29:46.013Z,236.83
2018-03-26T03:32:14.376Z,273.00
2018-03-26T03:34:41.996Z,435.57
2018-03-26T03:37:09.567Z,562.40
2018-03-26T03:39:37.172Z,525.73
2018-03-26T03:42:04.774Z,460.17
2018-03-26T03:44:32.340Z,213.60
2018-03-26T03:46:59.918Z,392.03
2018-03-26T03:49:27.806Z,506.20
2018-03-26T03:51:55.373Z,467.47
2018-03-26T03:54:23.288Z,509.67
2018-03-26T03:56:50.882Z,572.57
2018-03-26T03:59:18.485Z,694.57
2018-03-26T04:01:46.817Z,575.77
2018-03-26T04:04:14.418Z,845.07
2018-03-26T04:06:42.743Z,774.70
2018-03-26T04:09:10.639Z,701.03
2018-03-26T04:11:38.217Z,628.60
2018-03-26T04:14:06.563Z,1038.67
2018-03-26T04:16:34.169Z,555.93
2018-03-26T04:19:01.737Z,478.83
2018-03-26T04:21:29.307Z,492.10
2018-03-26T04:23:56.912Z,778.50
2018-03-26T04:26:24.486Z,839.60
2018-03-26T04:28:56.467Z,452.40
2018-03-26T04:31:24.039Z,383.03
2018-03-26T04:33:51.652Z,343.47
2018-03-26T04:36:19.206Z,586.73
2018-03-26T04:38:46.786Z,723.90
2018-03-26T04:41:15.146Z,640.50
2018-03-26T04:43:42.738Z,803.53
2018-03-26T04:46:11.073Z,661.40
2018-03-26T04:48:38.953Z,438.83
2018-03-26T04:51:06.518Z,647.63
2018-03-26T04:53:34.070Z,849.57
2018-03-26T04:56:01.899Z,521.63
2018-03-26T04:58:29.528Z,701.23
2018-03-26T05:00:57.116Z,712.97
2018-03-26T05:03:34.605Z,702.03
2018-03-26T05:06:02.216Z,508.27
2018-03-26T05:08:30.577Z,686.10
2018-03-26T05:10:58.178Z,446.70
2018-03-26T05:13:25.762Z,411.43
2018-03-26T05:15:53.370Z,545.83
2018-03-26T05:18:21.745Z,606.37
2018-03-26T05:20:50.088Z,535.87
2018-03-26T05:23:17.668Z,320.53
2018-03-26T05:25:45.527Z,242.50
2018-03-26T05:28:13.421Z,264.83
2018-03-26T05:30:41.968Z,322.60
2018-03-26T05:33:09.582Z,231.87
2018-03-26T05:35:37.147Z,312.10
2018-03-26T05:38:04.724Z,351.00
2018-03-26T05:40:32.382Z,195.23
2018-03-26T05:43:00.185Z,316.67
2018-03-26T05:45:27.773Z,300.63
2018-03-26T05:47:56.152Z,173.67
2018-03-26T05:50:24.531Z,116.67
2018-03-26T05:52:52.875Z,88.37
2018-03-26T05:55:20.465Z,100.70
2018-03-26T05:57:48.800Z,114.33
2018-03-26T06:00:16.372Z,136.83
2018-03-26T06:02:43.967Z,83.47
2018-03-26T06:05:12.317Z,88.20
2018-03-26T06:07:39.888Z,36.70
2018-03-26T06:10:08.273Z,64.27
2018-03-26T06:12:36.597Z,52.70
2018-03-26T06:15:04.153Z,80.40
2018-03-26T06:17:31.767Z,50.57
2018-03-26T06:20:00.160Z,55.07
2018-03-26T06:22:27.750Z,87.27
2018-03-26T06:24:55.421Z,55.40
2018-03-26T06:27:23.882Z,40.20
2018-03-26T06:29:51.461Z,114.63
2018-03-26T06:32:19.082Z,101.30
2018-03-26T06:34:46.655Z,76.07
2018-03-26T06:40:17.737Z,86.03
2018-03-26T06:42:45.339Z,168.27
2018-03-26T06:45:13.821Z,136.77
2018-03-26T06:47:42.192Z,137.90
2018-03-26T06:50:10.521Z,81.63
2018-03-26T06:52:38.273Z,181.47
2018-03-26T06:55:05.833Z,216.77
2018-03-26T06:57:33.419Z,132.87
2018-03-26T07:00:01.063Z,126.07
2018-03-26T07:02:28.682Z,139.27
2018-03-26T07:04:57.022Z,61.20
2018-03-26T07:07:24.609Z,44.07
2018-03-26T07:09:52.952Z,75.27
2018-03-26T07:12:20.941Z,49.53
2018-03-26T07:14:49.311Z,48.57
2018-03-26T07:17:16.879Z,42.03
2018-03-26T07:19:44.478Z,48.47
2018-03-26T07:22:12.069Z,44.70
2018-03-26T07:24:39.639Z,49.03
2018-03-26T07:27:08.048Z,49.27
2018-03-26T07:29:36.398Z,49.57
2018-03-26T07:32:03.979Z,32.90
2018-03-26T07:34:32.340Z,40.03
2018-03-26T07:36:59.911Z,43.60
2018-03-26T07:39:28.267Z,37.17
2018-03-26T07:41:55.876Z,37.97
2018-03-26T07:44:23.435Z,28.47
2018-03-26T07:46:51.020Z,32.03
2018-03-26T07:49:18.610Z,22.70
2018-03-26T07:51:47.703Z,31.77
2018-03-26T07:54:15.276Z,34.53
2018-03-26T07:56:42.868Z,38.83
2018-03-26T07:59:10.454Z,36.67
2018-03-26T08:01:37.999Z,32.73
2018-03-26T08:04:05.614Z,47.07
2018-03-26T08:06:33.217Z,37.97
2018-03-26T08:09:00.956Z,36.43
2018-03-26T08:11:29.358Z,38.60
2018-03-26T08:13:56.933Z,36.27
2018-03-26T08:16:24.533Z,40.53
2018-03-26T08:18:52.103Z,43.20
2018-03-26T08:21:20.471Z,25.10
2018-03-26T08:23:48.903Z,27.57
2018-03-26T08:26:16.431Z,28.30
2018-03-26T08:28:44.044Z,23.40
2018-03-26T08:31:11.614Z,29.73
2018-03-26T08:33:40.736Z,32.40
2018-03-26T08:36:09.090Z,26.60
2018-03-26T08:38:36.697Z,28.87
2018-03-26T08:41:04.262Z,31.13
2018-03-26T08:43:31.833Z,23.13
2018-03-26T08:45:59.712Z,26.90
2018-03-26T08:48:27.293Z,23.60
2018-03-26T08:50:54.858Z,21.70
2018-03-26T08:53:23.419Z,22.50
2018-03-26T08:55:51.008Z,20.20
2018-03-26T08:58:19.345Z,19.23
2018-03-26T09:00:46.936Z,24.40
2018-03-26T09:03:14.529Z,22.67
2018-03-26T09:05:42.109Z,22.90
2018-03-26T09:08:09.990Z,24.90
2018-03-26T09:10:37.550Z,24.17
2018-03-26T09:13:05.119Z,28.80
2018-03-26T09:15:34.200Z,29.27
2018-03-26T09:18:01.766Z,27.20
2018-03-26T09:20:29.334Z,27.17
2018-03-26T09:22:56.934Z,25.37
2018-03-26T09:25:24.572Z,24.67
2018-03-26T09:27:52.914Z,23.67
2018-03-26T09:30:20.516Z,24.90
2018-03-26T09:32:48.853Z,24.60
2018-03-26T09:35:16.397Z,27.20
2018-03-26T09:37:44.015Z,23.90
2018-03-26T09:40:11.602Z,25.43
2018-03-26T09:42:39.290Z,28.40
2018-03-26T09:45:06.864Z,29.17
2018-03-26T09:47:34.467Z,32.90
2018-03-26T09:50:02.532Z,31.77
2018-03-26T09:52:30.860Z,29.90
2018-03-26T09:54:58.425Z,28.40
2018-03-26T09:57:26.492Z,22.50
2018-03-26T09:59:54.058Z,21.03
2018-03-26T10:02:21.626Z,23.07
2018-03-26T10:04:49.483Z,16.63
2018-03-26T10:07:17.052Z,21.53
2018-03-26T10:09:44.618Z,20.00
2018-03-26T10:12:13.004Z,20.93
2018-03-26T10:14:41.377Z,22.90
2018-03-26T10:17:09.718Z,22.10
2018-03-26T10:19:37.352Z,16.50
2018-03-26T10:22:04.929Z,16.70
2018-03-26T10:24:32.512Z,21.07
2018-03-26T10:27:00.130Z,28.07
2018-03-26T10:29:27.754Z,17.50
2018-03-26T10:31:56.101Z,22.23
2018-03-26T10:34:23.716Z,23.13
2018-03-26T10:36:51.352Z,17.67
2018-03-26T10:39:19.686Z,22.00
2018-03-26T10:41:47.280Z,22.50
2018-03-26T10:44:15.628Z,25.53
2018-03-26T10:46:43.204Z,20.37
2018-03-26T10:49:10.794Z,13.73
2018-03-26T10:51:39.118Z,15.60
2018-03-26T10:54:06.690Z,15.97
2018-03-26T10:56:34.582Z,19.40
2018-03-26T10:59:02.960Z,14.00
2018-03-26T11:01:31.294Z,14.53
2018-03-26T11:03:58.898Z,15.77
2018-03-26T11:06:27.514Z,17.23
2018-03-26T11:08:55.159Z,10.73
2018-03-26T11:11:22.992Z,9.40
2018-03-26T11:13:51.335Z,10.90
2018-03-26T11:16:18.898Z,13.00
2018-03-26T11:18:46.536Z,11.47
2018-03-26T11:21:14.110Z,12.80
2018-03-26T11:23:41.676Z,10.03
2018-03-26T11:26:09.662Z,13.43
2018-03-26T11:28:37.222Z,10.73
2018-03-26T11:31:04.773Z,12.43
2018-03-26T11:33:32.364Z,11.23
2018-03-26T11:36:00.745Z,8.30
2018-03-26T11:38:28.291Z,9.93
2018-03-26T11:40:55.905Z,8.97
2018-03-26T11:43:23.618Z,8.87
2018-03-26T11:45:51.967Z,7.17
2018-03-26T11:48:19.568Z,7.60
2018-03-26T11:50:47.908Z,16.30
2018-03-26T11:53:15.469Z,8.90
2018-03-26T11:55:43.083Z,11.80
2018-03-26T11:58:10.678Z,9.07
2018-03-26T12:00:38.311Z,9.43
2018-03-26T12:03:06.206Z,12.70
2018-03-26T12:05:33.807Z,14.57
2018-03-26T12:08:02.139Z,9.00
2018-03-26T12:10:30.006Z,8.43
2018-03-26T12:12:57.557Z,9.23
2018-03-26T12:15:25.124Z,10.03
2018-03-26T12:17:52.709Z,7.63
2018-03-26T12:20:32.403Z,7.13
2018-03-26T12:23:11.961Z,10.97
2018-03-26T12:25:39.520Z,8.17
2018-03-26T12:28:19.135Z,9.90
2018-03-26T12:30:46.696Z,9.07
2018-03-26T12:33:14.257Z,8.00
2018-03-26T12:36:05.639Z,11.13
2018-03-26T12:38:33.966Z,10.57
2018-03-26T12:41:01.547Z,11.70
2018-03-26T12:43:29.154Z,12.57
2018-03-26T12:46:08.760Z,12.50
2018-03-26T12:48:36.717Z,9.20
2018-03-26T12:51:31.184Z,13.90
2018-03-26T12:53:58.787Z,9.00
2018-03-26T12:56:27.109Z,13.17
2018-03-26T12:58:54.673Z,10.27
2018-03-26T13:01:34.020Z,12.53
2018-03-26T13:04:01.614Z,16.77
2018-03-26T13:06:30.209Z,11.33
2018-03-26T13:08:57.906Z,11.10
2018-03-26T13:11:25.508Z,11.90
2018-03-26T13:13:53.837Z,8.77
2018-03-26T13:16:21.425Z,8.03
2018-03-26T13:18:49.026Z,12.73
2018-03-26T13:21:17.375Z,8.33
2018-03-26T13:23:44.986Z,9.30
2018-03-26T13:26:12.563Z,10.80
2018-03-26T13:28:40.128Z,9.00
2018-03-26T13:31:07.717Z,14.53
2018-03-26T13:33:36.789Z,12.47
2018-03-26T13:36:04.405Z,10.40
2018-03-26T13:38:32.275Z,14.90
2018-03-26T13:41:00.216Z,19.13
2018-03-26T13:43:28.558Z,14.63
2018-03-26T13:45:56.141Z,10.53
2018-03-26T13:48:23.729Z,11.03
2018-03-26T13:50:52.056Z,7.90
2018-03-26T13:53:19.940Z,10.30
2018-03-26T13:55:47.525Z,14.20
2018-03-26T13:58:15.845Z,9.23
2018-03-26T14:00:43.451Z,6.80
2018-03-26T14:03:11.932Z,6.80
2018-03-26T14:05:40.271Z,5.67
2018-03-26T14:08:28.925Z,7.20
2018-03-26T14:11:08.143Z,6.67
2018-03-26T14:16:47.027Z,6.87
2018-03-26T14:19:14.983Z,4.90
2018-03-26T14:21:42.585Z,6.73
2018-03-26T14:24:10.162Z,10.83
2018-03-26T14:26:37.777Z,4.50
2018-03-26T14:29:06.093Z,5.20
2018-03-26T14:31:33.668Z,9.27
2018-03-26T14:34:01.281Z,7.13
2018-03-26T14:36:29.624Z,6.30
2018-03-26T14:38:57.200Z,4.80
2018-03-26T14:41:24.793Z,5.17
2018-03-26T14:43:52.362Z,5.77
2018-03-26T14:46:20.012Z,19.63
2018-03-26T14:48:47.613Z,11.67
2018-03-26T14:51:15.187Z,7.00
2018-03-26T14:53:43.855Z,10.30
2018-03-26T14:56:11.441Z,9.30
2018-03-26T14:58:39.025Z,7.07
2018-03-26T15:01:07.374Z,9.30
2018-03-26T15:03:36.451Z,7.67
2018-03-26T15:06:04.008Z,9.70
2018-03-26T15:08:31.594Z,7.27
2018-03-26T15:10:59.348Z,9.60
2018-03-26T15:13:26.933Z,6.43
2018-03-26T15:15:55.385Z,7.20
2018-03-26T15:18:23.042Z,6.07
2018-03-26T15:20:50.631Z,7.77
2018-03-26T15:23:19.262Z,9.80
2018-03-26T15:25:46.855Z,9.00
2018-03-26T15:28:14.412Z,9.87
2018-03-26T15:30:42.800Z,10.07
2018-03-26T15:33:10.362Z,10.07
2018-03-26T15:35:38.698Z,8.10
2018-03-26T15:38:06.320Z,9.97
2018-03-26T15:40:33.881Z,12.10
2018-03-26T15:43:01.492Z,12.13
2018-03-26T15:45:29.050Z,9.30
2018-03-26T15:47:56.688Z,9.97
2018-03-26T15:50:24.288Z,8.60
2018-03-26T15:52:51.878Z,11.07
2018-03-26T15:55:19.459Z,10.50
2018-03-26T15:57:47.087Z,13.57
2018-03-26T16:00:15.451Z,14.10
2018-03-26T16:02:49.549Z,11.83
2018-03-26T16:05:17.117Z,9.80
2018-03-26T16:07:45.461Z,12.40
2018-03-26T16:10:13.367Z,13.97
2018-03-26T16:12:41.705Z,13.10
2018-03-26T16:15:09.263Z,15.00
2018-03-26T16:17:36.894Z,16.30
2018-03-26T16:20:04.484Z,11.13
2018-03-26T16:22:32.071Z,16.73
2018-03-26T16:24:59.668Z,13.13
2018-03-26T16:27:27.221Z,19.77
2018-03-26T16:29:54.785Z,18.63
2018-03-26T16:32:22.389Z,19.33
2018-03-26T16:34:49.963Z,14.53
2018-03-26T16:37:17.548Z,16.70
2018-03-26T16:39:45.914Z,15.07
2018-03-26T16:42:24.215Z,13.37
2018-03-26T16:44:51.815Z,13.97
2018-03-26T16:47:20.099Z,12.80
2018-03-26T16:49:47.699Z,14.40
2018-03-26T16:52:16.767Z,12.53
2018-03-26T16:54:44.366Z,13.53
2018-03-26T16:57:12.897Z,13.30
2018-03-26T16:59:40.483Z,15.47
2018-03-26T17:02:08.106Z,15.37
2018-03-26T17:04:35.692Z,21.30
2018-03-26T17:07:03.278Z,14.23
2018-03-26T17:09:30.895Z,4.73
2018-03-26T17:11:58.473Z,5.43
2018-03-26T17:14:26.041Z,4.70
2018-03-26T17:16:53.922Z,3.33
2018-03-26T17:19:22.273Z,5.77
2018-03-26T17:21:49.836Z,3.20
2018-03-26T17:24:18.585Z,3.23
2018-03-26T17:26:46.146Z,3.43
2018-03-26T17:29:13.728Z,4.77
2018-03-26T17:31:41.312Z,4.50
2018-03-26T17:34:08.872Z,2.57
2018-03-26T17:36:36.440Z,6.57
2018-03-26T17:39:05.932Z,3.57
2018-03-26T17:41:33.507Z,4.30
2018-03-26T17:44:01.853Z,2.60
2018-03-26T17:46:29.468Z,2.40
2018-03-26T17:48:57.059Z,4.17
2018-03-26T17:51:24.641Z,3.00
2018-03-26T17:53:52.222Z,6.20
2018-03-26T17:56:20.579Z,6.83
2018-03-26T17:58:48.171Z,12.17
2018-03-26T18:01:16.578Z,9.87
2018-03-26T18:03:44.143Z,7.30
2018-03-26T18:06:11.703Z,5.50
2018-03-26T18:08:39.424Z,3.60
2018-03-26T18:11:07.753Z,6.87
2018-03-26T18:13:35.316Z,4.37
2018-03-26T18:16:02.912Z,5.17
2018-03-26T18:18:30.655Z,5.53
2018-03-26T18:20:59.730Z,4.23
2018-03-26T18:23:27.321Z,4.70
2018-03-26T18:25:55.634Z,13.83
2018-03-26T18:28:23.319Z,5.00
2018-03-26T18:30:50.942Z,6.40
2018-03-26T18:33:19.470Z,7.50
2018-03-26T18:35:47.028Z,6.77
2018-03-26T18:38:14.667Z,5.37
2018-03-26T18:40:42.217Z,4.97
2018-03-26T18:43:09.866Z,5.30
2018-03-26T18:45:37.487Z,7.53
2018-03-26T18:48:05.047Z,9.10
2018-03-26T18:50:32.779Z,5.80
2018-03-26T18:53:00.363Z,4.00
2018-03-26T18:55:27.926Z,10.37
2018-03-26T18:57:55.897Z,10.87
2018-03-26T19:00:23.449Z,5.37
2018-03-26T19:02:51.009Z,7.23
2018-03-26T19:05:18.643Z,10.60
2018-03-26T19:07:46.220Z,8.80
2018-03-26T19:10:13.805Z,7.37
2018-03-26T19:12:42.143Z,9.53
2018-03-26T19:15:10.023Z,13.23
2018-03-26T19:17:37.601Z,8.10
2018-03-26T19:20:05.245Z,14.37
2018-03-26T19:22:32.869Z,12.60
2018-03-26T19:25:00.487Z,22.33
2018-03-26T19:27:29.607Z,22.50
2018-03-26T19:29:57.522Z,20.93
2018-03-26T19:32:25.078Z,17.87
2018-03-26T19:34:52.654Z,21.37
2018-03-26T19:37:20.260Z,25.87
2018-03-26T19:39:47.847Z,23.97
2018-03-26T19:42:15.425Z,25.17
2018-03-26T19:44:43.913Z,20.40
2018-03-26T19:47:11.485Z,18.90
2018-03-26T19:49:39.815Z,15.10
2018-03-26T19:52:07.676Z,14.10
2018-03-26T19:54:35.268Z,9.83
2018-03-26T19:57:02.821Z,11.07
2018-03-26T19:59:30.421Z,9.93
2018-03-26T20:01:58.743Z,8.70
2018-03-26T20:04:26.630Z,11.60
2018-03-26T20:06:54.232Z,8.67
2018-03-26T20:09:21.811Z,10.23
2018-03-26T20:11:49.414Z,10.83
2018-03-26T20:14:17.271Z,7.70
2018-03-26T20:16:44.853Z,7.00
2018-03-26T20:19:12.461Z,6.00
2018-03-26T20:21:40.059Z,4.40
2018-03-26T20:24:07.628Z,7.17
2018-03-26T20:26:35.187Z,8.50
2018-03-26T20:29:03.531Z,5.73
2018-03-26T20:31:31.128Z,10.30
2018-03-26T20:33:59.486Z,4.23
2018-03-26T20:36:27.536Z,5.30
2018-03-26T20:38:55.144Z,4.30
2018-03-26T20:41:23.477Z,7.03
2018-03-26T20:43:51.021Z,6.27
2018-03-26T20:46:18.629Z,5.03
2018-03-26T20:48:47.026Z,5.57
2018-03-26T20:51:15.462Z,8.30
2018-03-26T20:53:43.167Z,9.73
2018-03-26T20:56:11.504Z,8.10
2018-03-26T20:58:39.053Z,5.70
2018-03-26T21:01:06.682Z,7.40
2018-03-26T21:03:34.246Z,6.47
2018-03-26T21:06:02.262Z,10.03
2018-03-26T21:08:29.855Z,4.57
2018-03-26T21:10:58.181Z,7.77
2018-03-26T21:13:25.779Z,6.43
2018-03-26T21:15:54.099Z,6.63
2018-03-26T21:18:21.630Z,5.10
2018-03-26T21:20:49.984Z,5.90
2018-03-26T21:23:18.321Z,12.50
2018-03-26T21:25:45.897Z,10.80
2018-03-26T21:28:13.506Z,13.90
2018-03-26T21:30:41.051Z,13.50
2018-03-26T21:33:09.396Z,12.27
2018-03-26T21:35:37.351Z,8.67
2018-03-26T21:38:04.983Z,11.33
2018-03-26T21:40:32.551Z,9.17
2018-03-26T21:43:00.161Z,10.40
2018-03-26T21:45:28.496Z,13.13
2018-03-26T21:47:56.050Z,10.43
2018-03-26T21:50:23.675Z,11.17
2018-03-26T21:52:51.418Z,11.33
2018-03-26T21:55:19.752Z,11.83
2018-03-26T21:57:47.629Z,7.80
2018-03-26T22:00:23.433Z,6.83
2018-03-26T22:02:52.051Z,8.40
2018-03-26T22:05:19.631Z,8.77
2018-03-26T22:07:48.193Z,11.53
2018-03-26T22:10:15.798Z,6.73
2018-03-26T22:12:44.152Z,11.43
2018-03-26T22:15:11.838Z,8.60
2018-03-26T22:17:40.264Z,12.97
2018-03-26T22:20:07.827Z,9.67
2018-03-26T22:22:35.395Z,10.17
2018-03-26T22:25:02.994Z,9.40
2018-03-26T22:27:31.339Z,8.67
2018-03-26T22:29:58.945Z,10.97
2018-03-26T22:32:27.284Z,13.17
2018-03-26T22:34:54.885Z,8.40
2018-03-26T22:37:23.259Z,15.43
2018-03-26T22:39:51.624Z,10.90
2018-03-26T22:42:20.451Z,10.73
2018-03-26T22:44:48.055Z,9.60
2018-03-26T22:47:15.635Z,13.33
2018-03-26T22:49:44.037Z,12.80
2018-03-26T22:52:11.586Z,12.27
2018-03-26T22:54:39.911Z,13.23
2018-03-26T22:57:07.690Z,13.40
2018-03-26T22:59:36.030Z,10.63
2018-03-26T23:02:03.591Z,9.73
2018-03-26T23:04:31.194Z,13.40
2018-03-26T23:06:58.752Z,12.80
2018-03-26T23:09:26.374Z,8.67
2018-03-26T23:11:53.960Z,9.97
2018-03-26T23:14:21.550Z,11.50
2018-03-26T23:16:49.869Z,11.47
2018-03-26T23:19:17.476Z,8.20
2018-03-26T23:21:45.807Z,10.07
2018-03-26T23:24:13.407Z,10.83
2018-03-26T23:26:41.768Z,9.23
2018-03-26T23:29:09.332Z,8.70
2018-03-26T23:31:37.007Z,9.87
2018-03-26T23:34:04.559Z,8.77
2018-03-26T23:36:32.929Z,10.10
2018-03-26T23:39:01.261Z,11.17
2018-03-26T23:41:28.835Z,10.97
2018-03-26T23:43:56.434Z,9.10
2018-03-26T23:46:24.005Z,10.77
2018-03-26T23:48:52.488Z,8.60
2018-03-26T23:51:20.861Z,11.27
2018-03-26T23:53:49.191Z,10.57
2018-03-26T23:56:17.077Z,10.60
2018-03-26T23:58:44.662Z,11.63
